sensor_id;sensor_type;location;lat;lon;timestamp;P1;durP1;ratioP1;P2;durP2;ratioP2
71973;SDS011;59840;52.122;5.404;2022-12-31T00:01:40;1.05;;;0.40;;
71973;SDS011;59840;52.122;5.404;2022-12-31T00:04:07;0.65;;;0.30;;
71973;SDS011;59840;52.122;5.404;2022-12-31T00:06:34;0.75;;;0.30;;
71973;SDS011;59840;52.122;5.404;2022-12-31T00:09:02;1.53;;;0.50;;
71973;SDS011;59840;52.122;5.404;2022-12-31T00:11:31;2.08;;;0.50;;
71973;SDS011;59840;52.122;5.404;2022-12-31T00:13:58;1.45;;;0.47;;
71973;SDS011;59840;52.122;5.404;2022-12-31T00:16:32;1.88;;;0.70;;
71973;SDS011;59840;52.122;5.404;2022-12-31T00:19:02;1.73;;;0.88;;
71973;SDS011;59840;52.122;5.404;2022-12-31T00:21:30;0.83;;;0.67;;
71973;SDS011;59840;52.122;5.404;2022-12-31T00:23:58;1.65;;;0.63;;
71973;SDS011;59840;52.122;5.404;2022-12-31T00:26:27;1.88;;;0.77;;
71973;SDS011;59840;52.122;5.404;2022-12-31T00:28:55;0.98;;;0.75;;
71973;SDS011;59840;52.122;5.404;2022-12-31T00:31:25;1.90;;;1.00;;
71973;SDS011;59840;52.122;5.404;2022-12-31T00:33:54;2.60;;;0.80;;
71973;SDS011;59840;52.122;5.404;2022-12-31T00:36:23;1.00;;;0.77;;
71973;SDS011;59840;52.122;5.404;2022-12-31T00:38:52;1.00;;;0.68;;
71973;SDS011;59840;52.122;5.404;2022-12-31T00:41:20;2.25;;;0.80;;
71973;SDS011;59840;52.122;5.404;2022-12-31T00:43:48;1.15;;;0.75;;
71973;SDS011;59840;52.122;5.404;2022-12-31T00:46:15;2.30;;;0.80;;
71973;SDS011;59840;52.122;5.404;2022-12-31T00:48:45;2.50;;;0.65;;
71973;SDS011;59840;52.122;5.404;2022-12-31T00:51:13;0.93;;;0.52;;
71973;SDS011;59840;52.122;5.404;2022-12-31T00:53:41;0.95;;;0.60;;
71973;SDS011;59840;52.122;5.404;2022-12-31T00:56:12;1.00;;;0.40;;
71973;SDS011;59840;52.122;5.404;2022-12-31T00:58:41;2.60;;;0.70;;
71973;SDS011;59840;52.122;5.404;2022-12-31T01:01:15;1.38;;;0.50;;
71973;SDS011;59840;52.122;5.404;2022-12-31T01:03:52;1.33;;;0.50;;
71973;SDS011;59840;52.122;5.404;2022-12-31T01:06:21;1.10;;;0.50;;
71973;SDS011;59840;52.122;5.404;2022-12-31T01:08:48;1.00;;;0.52;;
71973;SDS011;59840;52.122;5.404;2022-12-31T01:11:15;1.10;;;0.40;;
71973;SDS011;59840;52.122;5.404;2022-12-31T01:13:52;1.33;;;0.63;;
71973;SDS011;59840;52.122;5.404;2022-12-31T01:16:21;0.52;;;0.30;;
71973;SDS011;59840;52.122;5.404;2022-12-31T01:18:50;1.23;;;0.40;;
71973;SDS011;59840;52.122;5.404;2022-12-31T01:21:17;1.98;;;0.40;;
71973;SDS011;59840;52.122;5.404;2022-12-31T01:23:45;1.33;;;0.50;;
71973;SDS011;59840;52.122;5.404;2022-12-31T01:26:13;1.15;;;0.40;;
71973;SDS011;59840;52.122;5.404;2022-12-31T01:28:41;0.90;;;0.60;;
71973;SDS011;59840;52.122;5.404;2022-12-31T01:31:09;0.98;;;0.47;;
71973;SDS011;59840;52.122;5.404;2022-12-31T01:33:38;1.42;;;0.55;;
71973;SDS011;59840;52.122;5.404;2022-12-31T01:36:08;1.00;;;0.50;;
71973;SDS011;59840;52.122;5.404;2022-12-31T01:38:37;1.75;;;0.98;;
71973;SDS011;59840;52.122;5.404;2022-12-31T01:41:04;1.10;;;0.30;;
71973;SDS011;59840;52.122;5.404;2022-12-31T01:46:26;1.58;;;0.40;;
71973;SDS011;59840;52.122;5.404;2022-12-31T01:49:23;1.70;;;0.63;;
71973;SDS011;59840;52.122;5.404;2022-12-31T01:51:55;1.80;;;0.40;;
71973;SDS011;59840;52.122;5.404;2022-12-31T01:54:27;3.13;;;0.38;;
71973;SDS011;59840;52.122;5.404;2022-12-31T01:56:58;1.73;;;0.55;;
71973;SDS011;59840;52.122;5.404;2022-12-31T01:59:26;3.33;;;0.75;;
71973;SDS011;59840;52.122;5.404;2022-12-31T02:01:54;1.83;;;1.03;;
71973;SDS011;59840;52.122;5.404;2022-12-31T02:04:22;0.75;;;0.40;;
71973;SDS011;59840;52.122;5.404;2022-12-31T02:06:57;3.40;;;0.77;;
71973;SDS011;59840;52.122;5.404;2022-12-31T02:09:26;1.25;;;0.63;;
71973;SDS011;59840;52.122;5.404;2022-12-31T02:11:53;1.55;;;0.57;;
71973;SDS011;59840;52.122;5.404;2022-12-31T02:14:21;1.37;;;0.67;;
71973;SDS011;59840;52.122;5.404;2022-12-31T02:30:34;1.45;;;0.60;;
71973;SDS011;59840;52.122;5.404;2022-12-31T02:33:07;0.82;;;0.63;;
71973;SDS011;59840;52.122;5.404;2022-12-31T02:35:43;1.70;;;0.60;;
71973;SDS011;59840;52.122;5.404;2022-12-31T02:38:13;1.50;;;0.90;;
71973;SDS011;59840;52.122;5.404;2022-12-31T02:40:43;1.87;;;0.40;;
71973;SDS011;59840;52.122;5.404;2022-12-31T02:43:10;1.92;;;0.40;;
71973;SDS011;59840;52.122;5.404;2022-12-31T02:45:38;1.20;;;0.40;;
71973;SDS011;59840;52.122;5.404;2022-12-31T02:48:16;2.47;;;0.30;;
71973;SDS011;59840;52.122;5.404;2022-12-31T02:59:25;1.80;;;0.20;;
71973;SDS011;59840;52.122;5.404;2022-12-31T03:02:17;1.05;;;0.20;;
71973;SDS011;59840;52.122;5.404;2022-12-31T03:04:51;1.48;;;0.30;;
71973;SDS011;59840;52.122;5.404;2022-12-31T03:07:20;1.23;;;0.20;;
71973;SDS011;59840;52.122;5.404;2022-12-31T03:09:49;0.63;;;0.20;;
71973;SDS011;59840;52.122;5.404;2022-12-31T03:12:16;4.05;;;0.30;;
71973;SDS011;59840;52.122;5.404;2022-12-31T03:15:04;1.52;;;0.30;;
71973;SDS011;59840;52.122;5.404;2022-12-31T03:17:32;1.17;;;0.20;;
71973;SDS011;59840;52.122;5.404;2022-12-31T03:19:59;2.37;;;0.20;;
71973;SDS011;59840;52.122;5.404;2022-12-31T03:22:44;0.60;;;0.20;;
71973;SDS011;59840;52.122;5.404;2022-12-31T03:25:15;0.73;;;0.20;;
71973;SDS011;59840;52.122;5.404;2022-12-31T03:28:10;1.77;;;0.30;;
71973;SDS011;59840;52.122;5.404;2022-12-31T03:30:39;1.55;;;0.20;;
71973;SDS011;59840;52.122;5.404;2022-12-31T03:33:08;0.77;;;0.27;;
71973;SDS011;59840;52.122;5.404;2022-12-31T03:35:35;0.95;;;0.30;;
71973;SDS011;59840;52.122;5.404;2022-12-31T03:38:02;1.10;;;0.22;;
71973;SDS011;59840;52.122;5.404;2022-12-31T03:40:30;1.58;;;0.20;;
71973;SDS011;59840;52.122;5.404;2022-12-31T03:43:00;0.68;;;0.20;;
71973;SDS011;59840;52.122;5.404;2022-12-31T03:45:26;0.90;;;0.20;;
71973;SDS011;59840;52.122;5.404;2022-12-31T03:47:53;1.42;;;0.22;;
71973;SDS011;59840;52.122;5.404;2022-12-31T03:50:19;1.30;;;0.22;;
71973;SDS011;59840;52.122;5.404;2022-12-31T03:52:46;1.05;;;0.20;;
71973;SDS011;59840;52.122;5.404;2022-12-31T03:55:13;0.20;;;0.10;;
71973;SDS011;59840;52.122;5.404;2022-12-31T03:57:40;0.70;;;0.20;;
71973;SDS011;59840;52.122;5.404;2022-12-31T04:00:08;0.60;;;0.40;;
71973;SDS011;59840;52.122;5.404;2022-12-31T04:02:37;2.25;;;0.35;;
71973;SDS011;59840;52.122;5.404;2022-12-31T04:05:04;1.17;;;0.22;;
71973;SDS011;59840;52.122;5.404;2022-12-31T04:07:31;0.52;;;0.20;;
71973;SDS011;59840;52.122;5.404;2022-12-31T04:09:57;1.23;;;0.20;;
71973;SDS011;59840;52.122;5.404;2022-12-31T04:12:24;1.10;;;0.20;;
71973;SDS011;59840;52.122;5.404;2022-12-31T04:14:51;0.82;;;0.20;;
71973;SDS011;59840;52.122;5.404;2022-12-31T04:17:17;1.60;;;0.45;;
71973;SDS011;59840;52.122;5.404;2022-12-31T04:19:43;0.88;;;0.20;;
71973;SDS011;59840;52.122;5.404;2022-12-31T04:22:10;2.47;;;0.30;;
71973;SDS011;59840;52.122;5.404;2022-12-31T04:24:37;1.45;;;0.40;;
71973;SDS011;59840;52.122;5.404;2022-12-31T04:27:03;2.28;;;0.55;;
71973;SDS011;59840;52.122;5.404;2022-12-31T04:29:33;1.27;;;0.30;;
71973;SDS011;59840;52.122;5.404;2022-12-31T04:32:00;1.15;;;0.40;;
71973;SDS011;59840;52.122;5.404;2022-12-31T04:34:29;1.97;;;0.37;;
71973;SDS011;59840;52.122;5.404;2022-12-31T04:36:55;0.77;;;0.40;;
71973;SDS011;59840;52.122;5.404;2022-12-31T04:39:22;0.70;;;0.30;;
71973;SDS011;59840;52.122;5.404;2022-12-31T04:41:49;0.90;;;0.50;;
71973;SDS011;59840;52.122;5.404;2022-12-31T04:44:16;1.60;;;0.50;;
71973;SDS011;59840;52.122;5.404;2022-12-31T04:46:43;4.27;;;0.50;;
71973;SDS011;59840;52.122;5.404;2022-12-31T04:49:10;1.08;;;0.60;;
71973;SDS011;59840;52.122;5.404;2022-12-31T04:51:36;0.93;;;0.45;;
71973;SDS011;59840;52.122;5.404;2022-12-31T04:54:03;1.65;;;0.60;;
71973;SDS011;59840;52.122;5.404;2022-12-31T04:56:30;0.82;;;0.40;;
71973;SDS011;59840;52.122;5.404;2022-12-31T04:58:58;1.03;;;0.40;;
71973;SDS011;59840;52.122;5.404;2022-12-31T05:01:24;0.80;;;0.60;;
71973;SDS011;59840;52.122;5.404;2022-12-31T05:03:51;0.52;;;0.32;;
71973;SDS011;59840;52.122;5.404;2022-12-31T05:06:19;1.67;;;0.50;;
71973;SDS011;59840;52.122;5.404;2022-12-31T05:08:48;0.70;;;0.50;;
71973;SDS011;59840;52.122;5.404;2022-12-31T05:11:15;0.93;;;0.53;;
71973;SDS011;59840;52.122;5.404;2022-12-31T05:13:42;1.10;;;0.70;;
71973;SDS011;59840;52.122;5.404;2022-12-31T05:16:09;1.50;;;0.70;;
71973;SDS011;59840;52.122;5.404;2022-12-31T05:18:36;1.10;;;0.80;;
71973;SDS011;59840;52.122;5.404;2022-12-31T05:21:03;0.88;;;0.57;;
71973;SDS011;59840;52.122;5.404;2022-12-31T05:23:29;1.10;;;0.77;;
71973;SDS011;59840;52.122;5.404;2022-12-31T05:25:56;0.73;;;0.43;;
71973;SDS011;59840;52.122;5.404;2022-12-31T05:28:24;1.35;;;0.45;;
71973;SDS011;59840;52.122;5.404;2022-12-31T05:30:51;0.82;;;0.50;;
71973;SDS011;59840;52.122;5.404;2022-12-31T05:33:18;0.60;;;0.35;;
71973;SDS011;59840;52.122;5.404;2022-12-31T05:35:45;0.30;;;0.23;;
71973;SDS011;59840;52.122;5.404;2022-12-31T05:38:12;0.65;;;0.30;;
71973;SDS011;59840;52.122;5.404;2022-12-31T05:40:38;1.45;;;0.40;;
71973;SDS011;59840;52.122;5.404;2022-12-31T05:43:05;1.00;;;0.40;;
71973;SDS011;59840;52.122;5.404;2022-12-31T05:45:32;0.52;;;0.30;;
71973;SDS011;59840;52.122;5.404;2022-12-31T05:47:58;0.63;;;0.30;;
71973;SDS011;59840;52.122;5.404;2022-12-31T05:50:25;0.85;;;0.30;;
71973;SDS011;59840;52.122;5.404;2022-12-31T05:52:51;0.75;;;0.40;;
71973;SDS011;59840;52.122;5.404;2022-12-31T05:55:18;0.68;;;0.35;;
71973;SDS011;59840;52.122;5.404;2022-12-31T05:57:44;1.30;;;0.82;;
71973;SDS011;59840;52.122;5.404;2022-12-31T06:00:11;0.83;;;0.40;;
71973;SDS011;59840;52.122;5.404;2022-12-31T06:02:38;0.77;;;0.43;;
71973;SDS011;59840;52.122;5.404;2022-12-31T06:05:05;0.77;;;0.30;;
71973;SDS011;59840;52.122;5.404;2022-12-31T06:07:32;0.65;;;0.32;;
71973;SDS011;59840;52.122;5.404;2022-12-31T06:09:58;0.50;;;0.30;;
71973;SDS011;59840;52.122;5.404;2022-12-31T06:12:25;0.50;;;0.30;;
71973;SDS011;59840;52.122;5.404;2022-12-31T06:14:52;0.80;;;0.40;;
71973;SDS011;59840;52.122;5.404;2022-12-31T06:17:18;0.45;;;0.30;;
71973;SDS011;59840;52.122;5.404;2022-12-31T06:19:47;0.50;;;0.30;;
71973;SDS011;59840;52.122;5.404;2022-12-31T06:22:14;0.65;;;0.43;;
71973;SDS011;59840;52.122;5.404;2022-12-31T06:24:40;0.50;;;0.30;;
71973;SDS011;59840;52.122;5.404;2022-12-31T06:27:07;1.02;;;0.40;;
71973;SDS011;59840;52.122;5.404;2022-12-31T06:29:34;1.75;;;0.50;;
71973;SDS011;59840;52.122;5.404;2022-12-31T06:32:01;0.70;;;0.60;;
71973;SDS011;59840;52.122;5.404;2022-12-31T06:34:27;1.27;;;0.60;;
71973;SDS011;59840;52.122;5.404;2022-12-31T06:36:54;0.90;;;0.43;;
71973;SDS011;59840;52.122;5.404;2022-12-31T06:39:20;0.77;;;0.55;;
71973;SDS011;59840;52.122;5.404;2022-12-31T06:41:47;0.95;;;0.63;;
71973;SDS011;59840;52.122;5.404;2022-12-31T06:44:13;1.30;;;0.60;;
71973;SDS011;59840;52.122;5.404;2022-12-31T06:46:40;0.70;;;0.40;;
71973;SDS011;59840;52.122;5.404;2022-12-31T06:49:07;0.90;;;0.70;;
71973;SDS011;59840;52.122;5.404;2022-12-31T06:51:33;1.33;;;0.70;;
71973;SDS011;59840;52.122;5.404;2022-12-31T06:54:00;1.50;;;0.63;;
71973;SDS011;59840;52.122;5.404;2022-12-31T06:56:27;1.77;;;0.95;;
71973;SDS011;59840;52.122;5.404;2022-12-31T06:59:00;1.52;;;1.00;;
71973;SDS011;59840;52.122;5.404;2022-12-31T07:04:32;1.20;;;1.00;;
71973;SDS011;59840;52.122;5.404;2022-12-31T07:09:54;1.15;;;0.50;;
71973;SDS011;59840;52.122;5.404;2022-12-31T07:15:08;0.80;;;0.50;;
71973;SDS011;59840;52.122;5.404;2022-12-31T07:17:56;0.95;;;0.40;;
71973;SDS011;59840;52.122;5.404;2022-12-31T07:20:31;0.73;;;0.30;;
71973;SDS011;59840;52.122;5.404;2022-12-31T07:22:58;0.52;;;0.30;;
71973;SDS011;59840;52.122;5.404;2022-12-31T07:25:25;1.02;;;0.20;;
71973;SDS011;59840;52.122;5.404;2022-12-31T07:33:25;0.22;;;0.10;;
71973;SDS011;59840;52.122;5.404;2022-12-31T07:38:52;0.30;;;0.00;;
71973;SDS011;59840;52.122;5.404;2022-12-31T07:44:20;0.00;;;0.00;;
71973;SDS011;59840;52.122;5.404;2022-12-31T07:47:00;0.17;;;0.10;;
71973;SDS011;59840;52.122;5.404;2022-12-31T07:49:29;0.00;;;0.00;;
71973;SDS011;59840;52.122;5.404;2022-12-31T07:51:56;0.10;;;0.05;;
71973;SDS011;59840;52.122;5.404;2022-12-31T07:54:23;0.10;;;0.10;;
71973;SDS011;59840;52.122;5.404;2022-12-31T07:56:49;0.35;;;0.10;;
71973;SDS011;59840;52.122;5.404;2022-12-31T08:05:17;0.10;;;0.10;;
71973;SDS011;59840;52.122;5.404;2022-12-31T08:13:26;0.22;;;0.10;;
71973;SDS011;59840;52.122;5.404;2022-12-31T08:15:53;0.13;;;0.10;;
71973;SDS011;59840;52.122;5.404;2022-12-31T08:18:20;0.10;;;0.10;;
71973;SDS011;59840;52.122;5.404;2022-12-31T08:20:56;0.40;;;0.20;;
71973;SDS011;59840;52.122;5.404;2022-12-31T08:26:21;0.65;;;0.13;;
71973;SDS011;59840;52.122;5.404;2022-12-31T08:29:12;0.20;;;0.10;;
71973;SDS011;59840;52.122;5.404;2022-12-31T08:31:54;0.30;;;0.10;;
71973;SDS011;59840;52.122;5.404;2022-12-31T08:37:36;1.65;;;0.10;;
71973;SDS011;59840;52.122;5.404;2022-12-31T08:40:30;0.95;;;0.20;;
71973;SDS011;59840;52.122;5.404;2022-12-31T08:45:48;0.50;;;0.10;;
71973;SDS011;59840;52.122;5.404;2022-12-31T08:50:42;2.42;;;0.20;;
71973;SDS011;59840;52.122;5.404;2022-12-31T08:53:09;0.85;;;0.10;;
71973;SDS011;59840;52.122;5.404;2022-12-31T08:55:36;0.75;;;0.10;;
71973;SDS011;59840;52.122;5.404;2022-12-31T09:00:30;1.17;;;0.23;;
71973;SDS011;59840;52.122;5.404;2022-12-31T09:16:47;0.20;;;0.10;;
71973;SDS011;59840;52.122;5.404;2022-12-31T09:19:21;0.90;;;0.10;;
71973;SDS011;59840;52.122;5.404;2022-12-31T09:21:48;0.65;;;0.30;;
71973;SDS011;59840;52.122;5.404;2022-12-31T09:24:15;0.40;;;0.10;;
71973;SDS011;59840;52.122;5.404;2022-12-31T09:32:18;0.98;;;0.28;;
71973;SDS011;59840;52.122;5.404;2022-12-31T09:38:59;1.55;;;0.25;;
71973;SDS011;59840;52.122;5.404;2022-12-31T09:41:04;0.90;;;0.20;;
71973;SDS011;59840;52.122;5.404;2022-12-31T09:44:02;1.40;;;0.20;;
71973;SDS011;59840;52.122;5.404;2022-12-31T10:06:20;1.45;;;0.20;;
71973;SDS011;59840;52.122;5.404;2022-12-31T10:08:50;1.73;;;0.40;;
71973;SDS011;59840;52.122;5.404;2022-12-31T10:11:20;0.85;;;0.30;;
71973;SDS011;59840;52.122;5.404;2022-12-31T10:14:24;3.50;;;0.28;;
71973;SDS011;59840;52.122;5.404;2022-12-31T10:17:29;0.90;;;0.20;;
71973;SDS011;59840;52.122;5.404;2022-12-31T10:28:39;3.53;;;0.40;;
71973;SDS011;59840;52.122;5.404;2022-12-31T10:31:14;2.78;;;0.30;;
71973;SDS011;59840;52.122;5.404;2022-12-31T10:34:06;1.15;;;0.30;;
71973;SDS011;59840;52.122;5.404;2022-12-31T10:39:59;1.52;;;0.30;;
71973;SDS011;59840;52.122;5.404;2022-12-31T11:11:10;2.05;;;0.40;;
71973;SDS011;59840;52.122;5.404;2022-12-31T11:16:51;1.80;;;0.30;;
71973;SDS011;59840;52.122;5.404;2022-12-31T11:19:28;2.10;;;0.33;;
71973;SDS011;59840;52.122;5.404;2022-12-31T11:27:54;5.15;;;0.85;;
71973;SDS011;59840;52.122;5.404;2022-12-31T11:30:28;1.42;;;0.52;;
71973;SDS011;59840;52.122;5.404;2022-12-31T11:41:48;1.17;;;0.40;;
71973;SDS011;59840;52.122;5.404;2022-12-31T11:44:31;1.95;;;0.55;;
71973;SDS011;59840;52.122;5.404;2022-12-31T11:52:32;2.42;;;0.50;;
71973;SDS011;59840;52.122;5.404;2022-12-31T11:58:33;2.58;;;0.50;;
71973;SDS011;59840;52.122;5.404;2022-12-31T12:03:33;1.80;;;0.40;;
71973;SDS011;59840;52.122;5.404;2022-12-31T12:06:03;1.88;;;0.40;;
71973;SDS011;59840;52.122;5.404;2022-12-31T12:08:30;1.70;;;0.40;;
71973;SDS011;59840;52.122;5.404;2022-12-31T12:11:05;1.20;;;0.40;;
71973;SDS011;59840;52.122;5.404;2022-12-31T12:13:38;2.17;;;0.80;;
71973;SDS011;59840;52.122;5.404;2022-12-31T12:16:05;1.95;;;0.38;;
71973;SDS011;59840;52.122;5.404;2022-12-31T12:21:15;1.65;;;0.40;;
71973;SDS011;59840;52.122;5.404;2022-12-31T12:24:03;2.45;;;0.30;;
71973;SDS011;59840;52.122;5.404;2022-12-31T12:29:10;1.88;;;0.47;;
71973;SDS011;59840;52.122;5.404;2022-12-31T12:31:41;2.28;;;0.50;;
71973;SDS011;59840;52.122;5.404;2022-12-31T12:34:28;4.10;;;1.08;;
71973;SDS011;59840;52.122;5.404;2022-12-31T12:36:57;1.95;;;0.60;;
71973;SDS011;59840;52.122;5.404;2022-12-31T12:39:34;2.57;;;0.60;;
71973;SDS011;59840;52.122;5.404;2022-12-31T12:44:30;1.88;;;0.70;;
71973;SDS011;59840;52.122;5.404;2022-12-31T12:46:57;2.35;;;0.52;;
71973;SDS011;59840;52.122;5.404;2022-12-31T12:49:25;1.52;;;0.50;;
71973;SDS011;59840;52.122;5.404;2022-12-31T13:00:23;3.60;;;0.55;;
71973;SDS011;59840;52.122;5.404;2022-12-31T13:03:16;3.30;;;0.60;;
71973;SDS011;59840;52.122;5.404;2022-12-31T13:08:56;2.08;;;0.50;;
71973;SDS011;59840;52.122;5.404;2022-12-31T13:14:12;3.38;;;0.40;;
71973;SDS011;59840;52.122;5.404;2022-12-31T13:22:57;3.75;;;0.80;;
71973;SDS011;59840;52.122;5.404;2022-12-31T13:28:10;2.47;;;0.55;;
71973;SDS011;59840;52.122;5.404;2022-12-31T13:30:44;1.80;;;0.40;;
71973;SDS011;59840;52.122;5.404;2022-12-31T13:33:18;1.10;;;0.30;;
71973;SDS011;59840;52.122;5.404;2022-12-31T13:35:50;3.42;;;0.50;;
71973;SDS011;59840;52.122;5.404;2022-12-31T13:38:41;1.52;;;0.30;;
71973;SDS011;59840;52.122;5.404;2022-12-31T13:43:57;1.85;;;0.50;;
71973;SDS011;59840;52.122;5.404;2022-12-31T13:46:40;2.20;;;0.40;;
71973;SDS011;59840;52.122;5.404;2022-12-31T13:55:00;1.05;;;0.50;;
71973;SDS011;59840;52.122;5.404;2022-12-31T14:00:36;3.83;;;1.00;;
71973;SDS011;59840;52.122;5.404;2022-12-31T14:03:09;2.88;;;0.60;;
71973;SDS011;59840;52.122;5.404;2022-12-31T14:05:50;2.15;;;0.50;;
71973;SDS011;59840;52.122;5.404;2022-12-31T14:08:32;3.38;;;0.57;;
71973;SDS011;59840;52.122;5.404;2022-12-31T14:11:01;3.42;;;0.52;;
71973;SDS011;59840;52.122;5.404;2022-12-31T14:16:33;1.30;;;0.60;;
71973;SDS011;59840;52.122;5.404;2022-12-31T14:19:13;1.33;;;0.50;;
71973;SDS011;59840;52.122;5.404;2022-12-31T14:24:23;3.03;;;0.50;;
71973;SDS011;59840;52.122;5.404;2022-12-31T14:26:56;3.77;;;0.70;;
71973;SDS011;59840;52.122;5.404;2022-12-31T14:35:23;5.45;;;0.60;;
71973;SDS011;59840;52.122;5.404;2022-12-31T14:55:34;2.43;;;0.50;;
71973;SDS011;59840;52.122;5.404;2022-12-31T14:58:15;3.22;;;0.75;;
71973;SDS011;59840;52.122;5.404;2022-12-31T15:01:42;2.15;;;0.75;;
71973;SDS011;59840;52.122;5.404;2022-12-31T15:03:47;3.33;;;0.68;;
71973;SDS011;59840;52.122;5.404;2022-12-31T15:19:55;4.40;;;0.88;;
71973;SDS011;59840;52.122;5.404;2022-12-31T15:22:46;2.07;;;0.70;;
71973;SDS011;59840;52.122;5.404;2022-12-31T15:27:51;3.63;;;1.25;;
71973;SDS011;59840;52.122;5.404;2022-12-31T15:32:54;2.65;;;1.25;;
71973;SDS011;59840;52.122;5.404;2022-12-31T15:35:46;5.20;;;0.93;;
71973;SDS011;59840;52.122;5.404;2022-12-31T15:38:31;5.18;;;0.98;;
71973;SDS011;59840;52.122;5.404;2022-12-31T15:41:11;3.28;;;0.70;;
71973;SDS011;59840;52.122;5.404;2022-12-31T15:46:32;5.20;;;1.70;;
71973;SDS011;59840;52.122;5.404;2022-12-31T15:51:45;5.13;;;1.15;;
71973;SDS011;59840;52.122;5.404;2022-12-31T15:54:19;3.90;;;1.10;;
71973;SDS011;59840;52.122;5.404;2022-12-31T15:56:47;8.25;;;1.08;;
71973;SDS011;59840;52.122;5.404;2022-12-31T15:59:15;4.93;;;1.02;;
71973;SDS011;59840;52.122;5.404;2022-12-31T16:01:44;4.03;;;0.90;;
71973;SDS011;59840;52.122;5.404;2022-12-31T16:04:22;2.53;;;1.00;;
71973;SDS011;59840;52.122;5.404;2022-12-31T16:06:51;4.68;;;0.98;;
71973;SDS011;59840;52.122;5.404;2022-12-31T16:09:22;5.18;;;1.42;;
71973;SDS011;59840;52.122;5.404;2022-12-31T16:11:52;4.70;;;0.88;;
71973;SDS011;59840;52.122;5.404;2022-12-31T16:20:20;5.18;;;0.88;;
71973;SDS011;59840;52.122;5.404;2022-12-31T16:22:51;9.13;;;1.05;;
71973;SDS011;59840;52.122;5.404;2022-12-31T16:25:21;3.00;;;1.20;;
71973;SDS011;59840;52.122;5.404;2022-12-31T16:27:57;4.53;;;1.33;;
71973;SDS011;59840;52.122;5.404;2022-12-31T16:30:27;5.03;;;1.10;;
71973;SDS011;59840;52.122;5.404;2022-12-31T16:32:59;4.28;;;1.02;;
71973;SDS011;59840;52.122;5.404;2022-12-31T16:35:29;5.15;;;1.30;;
71973;SDS011;59840;52.122;5.404;2022-12-31T16:40:33;5.93;;;1.60;;
71973;SDS011;59840;52.122;5.404;2022-12-31T16:43:00;3.58;;;1.15;;
71973;SDS011;59840;52.122;5.404;2022-12-31T16:45:34;5.88;;;1.63;;
71973;SDS011;59840;52.122;5.404;2022-12-31T16:48:08;3.65;;;1.25;;
71973;SDS011;59840;52.122;5.404;2022-12-31T16:50:43;3.42;;;1.60;;
71973;SDS011;59840;52.122;5.404;2022-12-31T16:53:11;5.90;;;1.87;;
71973;SDS011;59840;52.122;5.404;2022-12-31T16:55:42;10.80;;;2.03;;
71973;SDS011;59840;52.122;5.404;2022-12-31T16:58:30;6.45;;;1.40;;
71973;SDS011;59840;52.122;5.404;2022-12-31T17:03:40;10.20;;;1.92;;
71973;SDS011;59840;52.122;5.404;2022-12-31T17:06:12;8.23;;;2.70;;
71973;SDS011;59840;52.122;5.404;2022-12-31T17:08:50;7.88;;;2.30;;
71973;SDS011;59840;52.122;5.404;2022-12-31T17:11:32;6.25;;;2.50;;
71973;SDS011;59840;52.122;5.404;2022-12-31T17:16:31;9.50;;;3.60;;
71973;SDS011;59840;52.122;5.404;2022-12-31T17:18:59;6.83;;;3.30;;
71973;SDS011;59840;52.122;5.404;2022-12-31T17:21:27;5.88;;;2.40;;
71973;SDS011;59840;52.122;5.404;2022-12-31T17:24:00;7.38;;;2.88;;
71973;SDS011;59840;52.122;5.404;2022-12-31T17:26:31;7.35;;;5.43;;
71973;SDS011;59840;52.122;5.404;2022-12-31T17:28:59;5.75;;;3.40;;
71973;SDS011;59840;52.122;5.404;2022-12-31T17:36:40;6.15;;;2.50;;
71973;SDS011;59840;52.122;5.404;2022-12-31T17:39:20;5.57;;;2.30;;
71973;SDS011;59840;52.122;5.404;2022-12-31T17:41:48;6.53;;;2.60;;
71973;SDS011;59840;52.122;5.404;2022-12-31T17:44:19;5.37;;;2.23;;
71973;SDS011;59840;52.122;5.404;2022-12-31T17:46:48;6.00;;;2.50;;
71973;SDS011;59840;52.122;5.404;2022-12-31T17:49:15;7.18;;;2.10;;
71973;SDS011;59840;52.122;5.404;2022-12-31T17:51:42;2.40;;;1.88;;
71973;SDS011;59840;52.122;5.404;2022-12-31T17:54:14;5.80;;;2.17;;
71973;SDS011;59840;52.122;5.404;2022-12-31T17:56:41;9.50;;;2.13;;
71973;SDS011;59840;52.122;5.404;2022-12-31T17:59:10;6.15;;;2.42;;
71973;SDS011;59840;52.122;5.404;2022-12-31T18:01:42;6.53;;;4.03;;
71973;SDS011;59840;52.122;5.404;2022-12-31T18:04:18;6.30;;;2.55;;
71973;SDS011;59840;52.122;5.404;2022-12-31T18:06:46;8.20;;;2.70;;
71973;SDS011;59840;52.122;5.404;2022-12-31T18:09:12;5.60;;;2.30;;
71973;SDS011;59840;52.122;5.404;2022-12-31T18:11:41;6.60;;;2.58;;
71973;SDS011;59840;52.122;5.404;2022-12-31T18:14:09;5.57;;;2.40;;
71973;SDS011;59840;52.122;5.404;2022-12-31T18:16:39;8.30;;;2.30;;
71973;SDS011;59840;52.122;5.404;2022-12-31T18:19:09;6.45;;;2.75;;
71973;SDS011;59840;52.122;5.404;2022-12-31T18:22:00;5.83;;;2.37;;
71973;SDS011;59840;52.122;5.404;2022-12-31T18:24:27;6.65;;;2.47;;
71973;SDS011;59840;52.122;5.404;2022-12-31T18:26:53;7.03;;;2.40;;
71973;SDS011;59840;52.122;5.404;2022-12-31T18:29:20;6.38;;;2.67;;
71973;SDS011;59840;52.122;5.404;2022-12-31T18:31:47;4.88;;;2.00;;
71973;SDS011;59840;52.122;5.404;2022-12-31T18:34:15;8.43;;;2.27;;
71973;SDS011;59840;52.122;5.404;2022-12-31T18:36:43;4.65;;;2.53;;
71973;SDS011;59840;52.122;5.404;2022-12-31T18:39:10;3.33;;;1.70;;
71973;SDS011;59840;52.122;5.404;2022-12-31T18:41:40;4.25;;;2.10;;
71973;SDS011;59840;52.122;5.404;2022-12-31T18:44:14;7.43;;;2.00;;
71973;SDS011;59840;52.122;5.404;2022-12-31T18:46:41;5.60;;;2.17;;
71973;SDS011;59840;52.122;5.404;2022-12-31T18:49:08;7.70;;;2.53;;
71973;SDS011;59840;52.122;5.404;2022-12-31T18:51:34;3.30;;;1.70;;
71973;SDS011;59840;52.122;5.404;2022-12-31T18:54:01;2.13;;;1.55;;
71973;SDS011;59840;52.122;5.404;2022-12-31T18:56:28;4.97;;;2.00;;
71973;SDS011;59840;52.122;5.404;2022-12-31T18:58:56;6.73;;;1.70;;
71973;SDS011;59840;52.122;5.404;2022-12-31T19:03:57;4.72;;;2.08;;
71973;SDS011;59840;52.122;5.404;2022-12-31T19:06:25;4.50;;;1.77;;
71973;SDS011;59840;52.122;5.404;2022-12-31T19:08:53;6.13;;;2.15;;
71973;SDS011;59840;52.122;5.404;2022-12-31T19:11:20;4.50;;;1.63;;
71973;SDS011;59840;52.122;5.404;2022-12-31T19:13:47;10.30;;;1.70;;
71973;SDS011;59840;52.122;5.404;2022-12-31T19:16:14;3.90;;;1.67;;
71973;SDS011;59840;52.122;5.404;2022-12-31T19:18:42;7.70;;;2.03;;
71973;SDS011;59840;52.122;5.404;2022-12-31T19:21:11;4.53;;;1.60;;
71973;SDS011;59840;52.122;5.404;2022-12-31T19:23:44;5.33;;;1.83;;
71973;SDS011;59840;52.122;5.404;2022-12-31T19:26:15;8.45;;;1.70;;
71973;SDS011;59840;52.122;5.404;2022-12-31T19:28:44;8.18;;;1.73;;
71973;SDS011;59840;52.122;5.404;2022-12-31T19:31:11;4.68;;;2.53;;
71973;SDS011;59840;52.122;5.404;2022-12-31T19:33:38;5.40;;;1.73;;
71973;SDS011;59840;52.122;5.404;2022-12-31T19:36:05;4.20;;;1.97;;
71973;SDS011;59840;52.122;5.404;2022-12-31T19:38:32;6.68;;;1.88;;
71973;SDS011;59840;52.122;5.404;2022-12-31T19:40:59;7.85;;;1.42;;
71973;SDS011;59840;52.122;5.404;2022-12-31T19:43:27;4.45;;;2.03;;
71973;SDS011;59840;52.122;5.404;2022-12-31T19:45:54;7.40;;;1.88;;
71973;SDS011;59840;52.122;5.404;2022-12-31T19:48:21;6.73;;;2.63;;
71973;SDS011;59840;52.122;5.404;2022-12-31T19:50:57;6.90;;;1.40;;
71973;SDS011;59840;52.122;5.404;2022-12-31T19:53:25;2.35;;;1.40;;
71973;SDS011;59840;52.122;5.404;2022-12-31T19:55:53;5.75;;;1.60;;
71973;SDS011;59840;52.122;5.404;2022-12-31T19:58:23;4.50;;;1.40;;
71973;SDS011;59840;52.122;5.404;2022-12-31T20:00:51;6.97;;;3.03;;
71973;SDS011;59840;52.122;5.404;2022-12-31T20:03:28;5.25;;;2.05;;
71973;SDS011;59840;52.122;5.404;2022-12-31T20:06:02;5.25;;;1.80;;
71973;SDS011;59840;52.122;5.404;2022-12-31T20:08:30;9.60;;;2.08;;
71973;SDS011;59840;52.122;5.404;2022-12-31T20:10:59;5.38;;;1.70;;